Historyczne dane pomiarowe

Dodano dane terminowe – wersja testowa.

Dane z okresu 1951-2019

Wersja bazy: 1.34 [2019-03-16, lista zmian], aktualizacja planowana na 2019-04-15

Dane meteo z obszaru Polski uzyskane na podstawie danych udostępnionych przez Instytut Meteorologii i Gospodarki Wodnej – Państwowy Instytut Badawczy.

 

Wybierz Datę:    

       

TemperaturaWilgotnośćWiatrCiśnienieOpadyŚniegCzas trwania zjawisk
 Stacja t tx tn tng RH VA  wxwx mslp ppp RRR   cm mm wxwxwxwxwxwxwx
1969-01-17 0.3 0.9 -0.3--- 8.0 3.0---- 0.3------------
1969-01-18 0.5 1.4 0.2--- 8.0 5.7---- 1.4------------
1969-01-19 -1.4 1.0 -2.5--- 8.0 6.3---- 1.9------------
1969-01-20 -9.8 -2.4-12.1--- 6.3 5.3---- 0.8-- 2---------
1969-01-21-11.3 -8.6-16.7--- 2.7 5.7---- 0.0-- 2---------
1969-01-22 -6.5 -4.0-11.4--- 8.0 5.7---- 2.4-- 2---------
1969-01-23 0.8 2.9 -4.0--- 8.0 7.3---- 0.2-- 1---------
1969-01-24 -1.7 0.3 -2.7--- 8.0 2.7---- 0.3-- 1---------
1969-01-25 -2.8 -1.6 -4.1--- 8.0 2.3---- 0.0-- 1---------
1969-01-26 -3.2 -1.6 -5.4--- 8.0 1.0---- 0.0-- 1---------
1969-01-27 -3.8 -1.1 -5.2--- 8.0 4.7---- 0.0-- 1---------
1969-01-28 -2.7 -0.4 -8.4--- 8.0 2.0---- 0.0-- 1---------
1969-01-29 0.8 1.9 -0.9--- 8.0 3.7---- 0.8-- 1---------
1969-01-30 1.4 2.3 0.6--- 8.0 4.7---- 0.5------------
1969-01-31 2.2 4.4 1.2--- 8.0 4.3---- 0.4------------
1969-02-01 0.7 3.0 -0.8--- 6.3 5.7---- 0.0------------
1969-02-02 1.0 3.3 -1.2--- 8.0 4.3---- 0.4------------
1969-02-03 0.2 2.3 -0.8--- 8.0 4.7---- 1.7------------
1969-02-04 -2.2 -0.2 -4.1--- 8.0 4.0---- 1.8-- 3---------
1969-02-05 -6.9 0.3-10.4--- 3.7 1.3---- 0.0-- 3---------
1969-02-06 -8.8 -0.9-15.0--- 1.0 0.7---- 0.0-- 3---------
1969-02-07 -2.9 -1.2-12.0--- 6.0 6.3---- 0.0-- 3---------
1969-02-08 -3.9 -0.8 -5.0--- 7.0 4.7---- 0.4-- 3---------
1969-02-09 -6.5 -3.7 -9.8--- 8.0 3.3---- 0.1-- 5---------
1969-02-10 -7.6 -3.1-10.1--- 8.0 2.0---- 2.5-- 5---------
1969-02-11 -8.5 -6.7-11.7--- 8.0 3.0---- 1.4-- 8---------
1969-02-12-15.8 -7.7-18.4--- 4.0 2.7---- 0.1-- 9---------
1969-02-13-16.2-13.1-20.6--- 2.7 3.7---- 0.9-- 9---------
1969-02-14-15.1 -9.2-20.2--- 7.0 2.0---- 0.6-- 10---------
1969-02-15 -9.7 -4.1-25.4--- 8.0 4.7---- 2.1-- 10---------
218.2 ms

 

Źródłem pochodzenia danych jest Instytut Meteorologii i Gospodarki Wodnej – Państwowy Instytut Badawczy. Dane Instytutu Meteorologii i Gospodarki Wodnej – Państwowego Instytutu Badawczego zostały przetworzone.

Dane źródłowe można odnaleźć na stronie https://dane.imgw.pl